Time;durP1;ratioP1;P1;durP2;ratioP2;P2;SDS_P1;SDS_P2;PMS_P1;PMS_P2;Temp;Humidity;BMP_temperature;BMP_pressure;BME280_temperature;BME280_humidity;BME280_pressure;Samples;Min_cycle;Max_cycle;Signal;HPM_P1;HPM_P2
2023/09/03 00:00:22;;;;;;;4.27;2.90;;;17.70;99.90;;;;;;5060729;28;20463;-75
2023/09/03 00:03:09;;;;;;;14.90;3.40;;;17.70;99.90;;;;;;5055191;28;20617;-76
2023/09/03 00:05:56;;;;;;;4.30;3.10;;;17.70;99.90;;;;;;5064335;28;20466;-76
2023/09/03 00:08:41;;;;;;;5.40;3.73;;;17.60;99.90;;;;;;5064662;28;20589;-76
2023/09/03 00:11:27;;;;;;;5.03;2.80;;;17.50;99.90;;;;;;5062005;28;20422;-76
2023/09/03 00:14:13;;;;;;;4.30;2.30;;;17.40;99.90;;;;;;5061828;28;20514;-76
2023/09/03 00:16:58;;;;;;;6.50;3.13;;;17.30;99.90;;;;;;5060756;28;20447;-76
2023/09/03 00:19:46;;;;;;;3.80;2.20;;;17.20;99.90;;;;;;5061647;28;20444;-75
2023/09/03 00:22:31;;;;;;;9.80;2.37;;;17.20;99.90;;;;;;5057303;28;20495;-75
2023/09/03 00:25:17;;;;;;;3.10;2.27;;;17.20;99.90;;;;;;5060159;28;20478;-75
2023/09/03 00:28:03;;;;;;;6.80;2.10;;;17.20;99.90;;;;;;5062014;28;20528;-75
2023/09/03 00:31:01;;;;;;;6.90;2.57;;;17.20;99.90;;;;;;5060711;28;21871;-76
2023/09/03 00:33:46;;;;;;;12.77;2.07;;;17.20;99.90;;;;;;5059500;28;20414;-75
2023/09/03 00:36:33;;;;;;;5.27;3.03;;;17.20;99.90;;;;;;5061356;28;20465;-76
2023/09/03 00:39:19;;;;;;;6.87;2.30;;;17.30;99.90;;;;;;5064223;28;20511;-76
2023/09/03 00:42:05;;;;;;;3.73;2.60;;;17.30;99.90;;;;;;5060875;28;20445;-76
2023/09/03 00:44:50;;;;;;;14.77;2.40;;;17.30;99.90;;;;;;5063476;28;21164;-75
2023/09/03 00:47:36;;;;;;;3.93;2.20;;;17.20;99.90;;;;;;5059618;28;20634;-75
2023/09/03 00:50:22;;;;;;;6.60;2.60;;;17.20;99.90;;;;;;5060853;28;20447;-76
2023/09/03 00:53:10;;;;;;;3.60;2.60;;;17.20;99.90;;;;;;5061870;28;20917;-76
2023/09/03 00:55:56;;;;;;;4.90;2.40;;;17.20;99.90;;;;;;5060455;28;20435;-75
2023/09/03 00:58:42;;;;;;;8.20;2.70;;;17.20;99.90;;;;;;5062820;28;20463;-75
2023/09/03 01:01:30;;;;;;;3.60;2.27;;;17.20;99.90;;;;;;5058624;28;20439;-75
2023/09/03 01:04:15;;;;;;;3.90;2.27;;;17.20;99.90;;;;;;5058652;28;20571;-75
2023/09/03 01:07:01;;;;;;;8.37;2.60;;;17.20;99.90;;;;;;5060143;28;21050;-75
2023/09/03 01:09:48;;;;;;;8.37;2.63;;;17.20;99.90;;;;;;5062140;28;20422;-75
2023/09/03 01:12:38;;;;;;;4.43;2.20;;;17.10;99.90;;;;;;5062383;28;20429;-75
2023/09/03 01:15:29;;;;;;;4.80;2.20;;;17.10;99.90;;;;;;5053727;28;20574;-75
2023/09/03 01:18:19;;;;;;;5.43;2.37;;;17.00;99.90;;;;;;5059638;28;20433;-75
2023/09/03 01:21:35;;;;;;;8.70;2.03;;;17.10;99.90;;;;;;5058903;28;20486;-75
2023/09/03 01:24:36;;;;;;;6.30;2.20;;;17.10;99.90;;;;;;5055018;28;20434;-75
2023/09/03 01:27:34;;;;;;;7.83;2.23;;;17.00;99.90;;;;;;5064844;28;20457;-75
2023/09/03 01:30:22;;;;;;;8.23;2.20;;;17.00;99.90;;;;;;5062240;28;21225;-75
2023/09/03 01:33:08;;;;;;;4.80;2.00;;;16.90;99.90;;;;;;5067987;28;20444;-75
2023/09/03 01:35:57;;;;;;;4.40;2.07;;;16.90;99.90;;;;;;5060697;28;20439;-75
2023/09/03 01:38:43;;;;;;;5.37;2.30;;;16.80;99.90;;;;;;5061277;28;20442;-75
2023/09/03 01:41:29;;;;;;;5.97;2.50;;;16.70;99.90;;;;;;5059712;28;20438;-75
2023/09/03 01:44:14;;;;;;;5.77;2.17;;;16.60;99.90;;;;;;5058860;28;20577;-75
2023/09/03 01:47:10;;;;;;;4.70;2.40;;;16.70;99.90;;;;;;5064827;28;20438;-75
2023/09/03 01:50:03;;;;;;;5.73;2.10;;;16.70;99.90;;;;;;5063884;28;20451;-75
2023/09/03 01:52:57;;;;;;;3.50;1.97;;;16.70;99.90;;;;;;5067477;28;20823;-76
2023/09/03 01:55:47;;;;;;;3.90;2.10;;;16.70;99.90;;;;;;5063550;28;20443;-75
2023/09/03 01:58:37;;;;;;;3.80;2.00;;;16.80;99.90;;;;;;5062600;28;20926;-75
2023/09/03 02:01:24;;;;;;;9.63;2.17;;;16.80;99.90;;;;;;5062300;28;20939;-75
2023/09/03 02:04:11;;;;;;;3.87;2.03;;;16.80;99.90;;;;;;5059004;28;20457;-75
2023/09/03 02:06:57;;;;;;;5.00;2.30;;;16.70;99.90;;;;;;5058084;28;20497;-75
2023/09/03 02:09:43;;;;;;;9.20;2.30;;;16.80;99.90;;;;;;5060373;28;21495;-75
2023/09/03 02:12:28;;;;;;;4.17;1.90;;;16.80;99.90;;;;;;5055525;28;21605;-75
2023/09/03 02:15:14;;;;;;;4.50;2.30;;;16.80;99.90;;;;;;5056423;28;20453;-75
2023/09/03 02:18:00;;;;;;;5.80;1.90;;;16.80;99.90;;;;;;5056104;28;20454;-75
2023/09/03 02:20:47;;;;;;;5.50;2.07;;;16.80;99.90;;;;;;5057465;28;20419;-75
2023/09/03 02:23:33;;;;;;;3.70;1.90;;;16.90;99.90;;;;;;5056135;28;20475;-75
2023/09/03 02:26:19;;;;;;;4.90;2.20;;;16.90;99.90;;;;;;5054650;28;20437;-75
2023/09/03 02:29:04;;;;;;;3.87;1.63;;;16.80;99.90;;;;;;5057868;28;20426;-75
2023/09/03 02:31:50;;;;;;;5.53;1.97;;;16.70;99.90;;;;;;5055859;28;20556;-75
2023/09/03 02:34:36;;;;;;;7.70;2.37;;;16.60;99.90;;;;;;5055357;28;20442;-75
2023/09/03 02:37:23;;;;;;;7.73;2.37;;;16.60;99.90;;;;;;5057371;28;21018;-75
2023/09/03 02:40:09;;;;;;;4.93;2.03;;;16.60;99.90;;;;;;5061035;28;20442;-75
2023/09/03 02:42:55;;;;;;;7.70;2.10;;;16.50;99.90;;;;;;5055988;28;20471;-75
2023/09/03 02:45:40;;;;;;;6.00;1.60;;;16.50;99.90;;;;;;5063512;28;20930;-75
2023/09/03 02:48:26;;;;;;;10.93;1.93;;;16.40;99.90;;;;;;5055981;28;20580;-75
2023/09/03 02:51:12;;;;;;;4.17;1.70;;;16.40;99.90;;;;;;5061362;28;20418;-74
2023/09/03 02:53:59;;;;;;;4.20;1.70;;;16.30;99.90;;;;;;5063980;28;20842;-75
2023/09/03 02:56:44;;;;;;;7.37;1.83;;;16.10;99.90;;;;;;5056000;28;20554;-75
2023/09/03 02:59:31;;;;;;;5.70;1.97;;;16.10;99.90;;;;;;5064358;28;20428;-75
2023/09/03 03:02:17;;;;;;;7.57;1.90;;;16.00;99.90;;;;;;5056561;28;20446;-75
2023/09/03 03:05:04;;;;;;;4.90;2.33;;;16.10;99.90;;;;;;5058972;28;20517;-75
2023/09/03 03:07:49;;;;;;;3.70;1.87;;;16.10;99.90;;;;;;5059631;28;20418;-75
2023/09/03 03:10:37;;;;;;;4.10;1.80;;;16.10;99.90;;;;;;5061539;28;21079;-75
2023/09/03 03:13:22;;;;;;;5.77;2.47;;;16.10;99.90;;;;;;5064032;28;20887;-75
2023/09/03 03:16:09;;;;;;;3.50;2.33;;;16.10;99.90;;;;;;5063613;28;20512;-76
2023/09/03 03:18:55;;;;;;;9.03;1.63;;;16.20;99.90;;;;;;5054685;28;20980;-75
2023/09/03 03:21:40;;;;;;;4.40;1.70;;;16.20;99.90;;;;;;5057720;28;20438;-75
2023/09/03 03:24:26;;;;;;;19.27;2.50;;;16.10;99.90;;;;;;5059995;28;20499;-75
2023/09/03 03:27:14;;;;;;;3.80;2.03;;;16.10;99.90;;;;;;5065979;28;20499;-75
2023/09/03 03:30:00;;;;;;;4.40;1.73;;;16.10;99.90;;;;;;5060088;28;20449;-75
2023/09/03 03:32:46;;;;;;;8.00;1.80;;;16.10;99.90;;;;;;5064201;28;20486;-75
2023/09/03 03:35:31;;;;;;;5.20;1.87;;;16.10;99.90;;;;;;5058211;28;20613;-75
2023/09/03 03:38:17;;;;;;;5.10;2.13;;;16.20;99.90;;;;;;5060809;28;21053;-75
2023/09/03 03:41:11;;;;;;;4.77;1.90;;;16.30;99.90;;;;;;5059631;28;20485;-75
2023/09/03 03:43:58;;;;;;;4.73;2.40;;;16.30;99.90;;;;;;5071337;28;20539;-75
2023/09/03 03:46:43;;;;;;;4.20;1.80;;;16.30;99.90;;;;;;5059218;28;20467;-75
2023/09/03 03:49:29;;;;;;;3.50;2.13;;;16.40;99.90;;;;;;5061643;28;20822;-74
2023/09/03 03:52:15;;;;;;;4.13;2.70;;;16.50;99.90;;;;;;5064982;28;20451;-75
2023/09/03 03:55:00;;;;;;;4.70;1.80;;;16.50;99.90;;;;;;5069429;28;20580;-75
2023/09/03 03:57:46;;;;;;;8.43;2.27;;;16.50;99.90;;;;;;5067639;28;20922;-75
2023/09/03 04:00:33;;;;;;;5.73;1.53;;;16.50;99.90;;;;;;5057422;28;20423;-75
2023/09/03 04:03:19;;;;;;;8.10;1.70;;;16.50;99.90;;;;;;5066648;28;20614;-75
2023/09/03 04:06:05;;;;;;;2.90;1.60;;;16.40;99.90;;;;;;5063980;28;20460;-75
2023/09/03 04:08:50;;;;;;;12.43;2.10;;;16.30;99.90;;;;;;5056990;28;20438;-75
2023/09/03 04:11:36;;;;;;;2.77;2.00;;;16.40;99.90;;;;;;5058757;28;20422;-75
2023/09/03 04:14:22;;;;;;;11.70;1.90;;;16.40;99.90;;;;;;5065872;28;20527;-75
2023/09/03 04:17:09;;;;;;;7.60;1.93;;;16.50;99.90;;;;;;5068932;28;20979;-75
2023/09/03 04:19:55;;;;;;;6.60;2.27;;;16.40;99.90;;;;;;5060389;28;20585;-75
2023/09/03 04:22:40;;;;;;;3.97;2.03;;;16.40;99.90;;;;;;5060781;28;20423;-75
2023/09/03 04:25:26;;;;;;;5.40;1.70;;;16.40;99.90;;;;;;5063598;28;20773;-75
2023/09/03 04:28:12;;;;;;;3.00;1.80;;;16.40;99.90;;;;;;5059645;28;20467;-75
2023/09/03 04:31:00;;;;;;;4.07;1.73;;;16.40;99.90;;;;;;5057792;28;20436;-75
2023/09/03 04:33:47;;;;;;;5.00;1.90;;;16.50;99.90;;;;;;5065309;28;20481;-75
2023/09/03 04:36:33;;;;;;;2.50;1.70;;;16.40;99.90;;;;;;5057957;28;20498;-75
2023/09/03 04:39:19;;;;;;;5.30;1.80;;;16.40;99.90;;;;;;5057896;28;20525;-75
2023/09/03 04:42:06;;;;;;;9.47;1.80;;;16.30;99.90;;;;;;5057470;28;20960;-75
2023/09/03 04:44:51;;;;;;;4.00;1.60;;;16.30;99.90;;;;;;5062810;28;20453;-75
2023/09/03 04:47:37;;;;;;;8.87;1.77;;;16.20;99.90;;;;;;5062897;28;20412;-77
2023/09/03 04:50:25;;;;;;;6.77;2.13;;;16.20;99.90;;;;;;5059978;28;20426;-75
2023/09/03 04:53:11;;;;;;;5.90;2.80;;;16.10;99.90;;;;;;5063573;28;20450;-76
2023/09/03 04:55:57;;;;;;;7.47;2.03;;;16.00;99.90;;;;;;5059640;28;20596;-75
2023/09/03 04:58:43;;;;;;;6.27;2.50;;;16.00;99.90;;;;;;5061877;28;20442;-75
2023/09/03 05:01:28;;;;;;;4.40;1.90;;;15.90;99.90;;;;;;5057685;28;20450;-75
2023/09/03 05:04:14;;;;;;;7.53;2.00;;;15.90;99.90;;;;;;5060832;28;20457;-75
2023/09/03 05:07:02;;;;;;;7.00;2.10;;;16.00;99.90;;;;;;5060496;28;20450;-75
2023/09/03 05:09:48;;;;;;;6.00;1.90;;;16.00;99.90;;;;;;5063100;28;20438;-75
2023/09/03 05:12:34;;;;;;;4.23;2.30;;;16.10;99.90;;;;;;5055374;28;21074;-75
2023/09/03 05:15:20;;;;;;;6.57;1.73;;;16.20;99.90;;;;;;5062209;22;20959;-74
2023/09/03 05:18:06;;;;;;;9.80;2.20;;;16.30;99.90;;;;;;5027727;28;20423;-74
2023/09/03 05:20:51;;;;;;;4.20;1.80;;;16.30;99.90;;;;;;5027604;28;20530;-77
2023/09/03 05:23:39;;;;;;;11.63;1.90;;;16.40;99.90;;;;;;5024474;28;20472;-75
2023/09/03 05:26:24;;;;;;;9.47;2.10;;;16.40;99.90;;;;;;5020883;28;20967;-74
2023/09/03 05:29:09;;;;;;;5.30;1.93;;;16.50;99.90;;;;;;5026100;28;20449;-74
2023/09/03 05:31:55;;;;;;;2.70;1.73;;;16.60;99.90;;;;;;5020031;28;20570;-74
2023/09/03 05:34:41;;;;;;;5.00;1.90;;;16.60;99.90;;;;;;5023948;28;20436;-74
2023/09/03 05:37:26;;;;;;;4.10;2.20;;;16.60;99.90;;;;;;5024877;28;20422;-75
2023/09/03 05:40:14;;;;;;;9.93;2.27;;;16.50;99.90;;;;;;5022605;28;20539;-75
2023/09/03 05:42:59;;;;;;;6.37;1.97;;;16.60;99.90;;;;;;5022611;28;20752;-74
2023/09/03 05:45:45;;;;;;;8.50;2.13;;;16.60;99.90;;;;;;5021773;28;20489;-75
2023/09/03 05:48:31;;;;;;;3.30;1.83;;;16.60;99.90;;;;;;5023254;28;20458;-74
2023/09/03 05:51:16;;;;;;;2.60;1.57;;;16.60;99.90;;;;;;5023521;28;20952;-74
2023/09/03 05:54:02;;;;;;;5.40;2.10;;;16.70;99.90;;;;;;5028291;28;20779;-76
2023/09/03 05:56:49;;;;;;;5.27;2.10;;;16.70;99.90;;;;;;5019616;28;20784;-77
2023/09/03 05:59:35;;;;;;;3.93;1.40;;;16.80;99.90;;;;;;5025185;28;20547;-74
2023/09/03 06:02:20;;;;;;;4.80;2.37;;;16.80;99.90;;;;;;5021929;28;20483;-75
2023/09/03 06:05:07;;;;;;;3.93;2.20;;;16.80;99.90;;;;;;5028456;28;20473;-74
2023/09/03 06:07:53;;;;;;;4.37;1.87;;;16.90;99.90;;;;;;5024430;28;20423;-77
2023/09/03 06:10:38;;;;;;;3.80;1.50;;;16.90;99.90;;;;;;5022427;28;20441;-75
2023/09/03 06:13:27;;;;;;;3.57;1.93;;;16.90;99.90;;;;;;5023756;28;20509;-77
2023/09/03 06:16:12;;;;;;;4.00;2.67;;;16.90;99.90;;;;;;5025106;28;20485;-74
2023/09/03 06:18:58;;;;;;;4.30;2.30;;;17.00;99.90;;;;;;5023776;28;20981;-74
2023/09/03 06:21:44;;;;;;;5.83;2.40;;;17.20;99.90;;;;;;5022940;28;20428;-74
2023/09/03 06:24:29;;;;;;;15.50;2.77;;;17.20;99.90;;;;;;5021085;28;20794;-75
2023/09/03 06:27:15;;;;;;;5.40;2.63;;;17.20;99.90;;;;;;5021016;28;20866;-75
2023/09/03 06:30:03;;;;;;;10.93;3.27;;;17.30;99.90;;;;;;5021690;28;20449;-75
2023/09/03 06:32:48;;;;;;;5.93;2.90;;;17.30;99.90;;;;;;5021494;28;20445;-74
2023/09/03 06:35:34;;;;;;;6.10;2.50;;;17.30;99.90;;;;;;5021278;28;20498;-75
2023/09/03 06:38:20;;;;;;;7.80;2.57;;;17.30;99.90;;;;;;5022029;28;20540;-74
2023/09/03 06:41:05;;;;;;;5.97;2.40;;;17.40;99.90;;;;;;5025383;28;20437;-76
2023/09/03 06:43:51;;;;;;;5.63;2.30;;;17.40;99.90;;;;;;5027727;28;20449;-75
2023/09/03 06:46:38;;;;;;;9.03;2.70;;;17.50;99.90;;;;;;5025463;28;20585;-75
2023/09/03 06:49:24;;;;;;;4.07;2.47;;;17.70;99.90;;;;;;5024162;28;20446;-75
2023/09/03 06:52:10;;;;;;;4.73;2.17;;;17.70;99.90;;;;;;5027731;28;20515;-74
2023/09/03 06:54:55;;;;;;;9.10;2.70;;;17.80;99.90;;;;;;5023822;28;20444;-75
2023/09/03 06:57:41;;;;;;;2.80;2.00;;;17.70;99.90;;;;;;5026807;28;20498;-78
2023/09/03 07:00:26;;;;;;;6.23;2.33;;;17.70;99.90;;;;;;5024632;28;20539;-75
2023/09/03 07:03:14;;;;;;;8.33;2.20;;;17.80;99.90;;;;;;5022908;28;20514;-76
2023/09/03 07:06:00;;;;;;;7.30;2.27;;;17.90;99.90;;;;;;5023649;28;20444;-75
2023/09/03 07:08:45;;;;;;;3.17;2.07;;;18.00;99.90;;;;;;5025202;28;20423;-76
2023/09/03 07:11:31;;;;;;;6.43;2.90;;;18.10;99.90;;;;;;5023308;28;20454;-76
2023/09/03 07:14:17;;;;;;;3.07;2.10;;;18.10;99.90;;;;;;5025051;28;20421;-76
2023/09/03 07:17:03;;;;;;;3.80;2.63;;;18.20;99.90;;;;;;5023241;28;20445;-74
2023/09/03 07:19:53;;;;;;;3.20;2.10;;;18.30;99.90;;;;;;5023618;28;20417;-74
2023/09/03 07:22:40;;;;;;;6.30;2.43;;;18.40;99.90;;;;;;5021800;28;20520;-76
2023/09/03 07:25:26;;;;;;;6.00;2.37;;;18.50;99.90;;;;;;5024062;28;20463;-74
2023/09/03 07:28:11;;;;;;;3.60;2.73;;;18.60;99.90;;;;;;5024341;28;20474;-74
2023/09/03 07:30:57;;;;;;;3.00;2.57;;;18.70;99.90;;;;;;5025393;28;20985;-76
2023/09/03 07:33:44;;;;;;;7.80;2.80;;;18.80;99.90;;;;;;5025056;28;20439;-74
2023/09/03 07:36:31;;;;;;;4.27;2.67;;;18.70;99.90;;;;;;5024042;28;22943;-75
2023/09/03 07:39:17;;;;;;;5.43;2.77;;;18.80;99.90;;;;;;5020022;28;20466;-75
2023/09/03 07:42:02;;;;;;;4.87;2.77;;;18.70;99.90;;;;;;5024569;28;20959;-75
2023/09/03 07:44:48;;;;;;;5.33;2.40;;;18.60;99.90;;;;;;5024636;28;20621;-74
2023/09/03 07:47:34;;;;;;;4.60;2.50;;;18.60;99.90;;;;;;5024807;28;20516;-76
2023/09/03 07:50:20;;;;;;;6.30;3.70;;;18.70;99.90;;;;;;5021576;28;20542;-75
2023/09/03 07:53:07;;;;;;;5.10;3.50;;;18.90;99.90;;;;;;5023793;28;21239;-74
2023/09/03 07:55:52;;;;;;;5.30;2.93;;;19.00;99.90;;;;;;5020972;28;20432;-76
2023/09/03 07:58:38;;;;;;;3.87;2.17;;;19.10;99.90;;;;;;5022550;28;20430;-74
2023/09/03 08:01:24;;;;;;;5.53;2.70;;;19.20;99.90;;;;;;5022452;28;20425;-75
2023/09/03 08:04:10;;;;;;;5.67;2.33;;;19.40;99.90;;;;;;5020261;28;20493;-75
2023/09/03 08:06:56;;;;;;;8.57;2.60;;;19.50;99.90;;;;;;5022778;28;20443;-75
2023/09/03 08:09:43;;;;;;;6.10;2.43;;;19.60;99.90;;;;;;5022349;28;20448;-74
2023/09/03 08:12:29;;;;;;;4.10;2.60;;;19.70;99.90;;;;;;5026291;28;20497;-75
2023/09/03 08:15:14;;;;;;;4.27;2.80;;;19.80;99.90;;;;;;5025439;28;20492;-74
2023/09/03 08:18:00;;;;;;;4.80;2.80;;;19.90;99.90;;;;;;5029666;28;20446;-74
2023/09/03 08:20:45;;;;;;;6.30;3.00;;;19.90;99.90;;;;;;5023498;28;20434;-74
2023/09/03 08:23:31;;;;;;;11.10;2.57;;;20.00;99.90;;;;;;5027734;28;20914;-75
2023/09/03 08:26:19;;;;;;;3.30;2.50;;;20.10;99.90;;;;;;5017850;28;20450;-75
2023/09/03 08:29:04;;;;;;;5.63;2.70;;;20.20;99.90;;;;;;5017602;28;20467;-74
2023/09/03 08:31:50;;;;;;;4.30;2.40;;;20.30;99.90;;;;;;5026238;28;20565;-73
2023/09/03 08:34:35;;;;;;;11.00;3.57;;;20.50;99.90;;;;;;5024315;28;20567;-75
2023/09/03 08:37:26;;;;;;;5.10;2.80;;;20.50;99.90;;;;;;5028033;28;21144;-74
2023/09/03 08:40:13;;;;;;;4.00;2.37;;;20.60;99.90;;;;;;5025067;28;20518;-75
2023/09/03 08:43:00;;;;;;;8.90;2.17;;;20.70;99.90;;;;;;5022739;28;20576;-75
2023/09/03 08:45:51;;;;;;;3.80;2.60;;;20.70;99.90;;;;;;5029356;28;20842;-76
2023/09/03 08:48:37;;;;;;;3.27;2.63;;;20.80;99.90;;;;;;5029509;28;20444;-74
2023/09/03 08:51:23;;;;;;;2.83;2.00;;;21.00;99.90;;;;;;5026819;28;20796;-74
2023/09/03 08:54:09;;;;;;;3.90;2.30;;;21.00;99.90;;;;;;5028099;28;20410;-75
2023/09/03 08:56:57;;;;;;;4.50;3.97;;;21.10;99.90;;;;;;5028370;28;20426;-74
2023/09/03 08:59:43;;;;;;;7.67;2.90;;;21.10;99.90;;;;;;5029215;28;20443;-76
2023/09/03 09:02:30;;;;;;;3.93;2.83;;;21.20;99.90;;;;;;5024293;28;20980;-74
2023/09/03 09:05:16;;;;;;;3.80;2.83;;;21.30;99.90;;;;;;5026415;28;20485;-75
2023/09/03 09:08:04;;;;;;;5.27;3.30;;;21.30;99.90;;;;;;5026736;28;20449;-75
2023/09/03 09:10:52;;;;;;;4.53;3.30;;;21.40;99.90;;;;;;5026359;28;20534;-74
2023/09/03 09:13:41;;;;;;;3.90;2.80;;;21.50;99.90;;;;;;5027973;28;20444;-74
2023/09/03 09:16:28;;;;;;;5.90;3.60;;;21.50;99.90;;;;;;5025038;28;20472;-76
2023/09/03 09:19:18;;;;;;;4.67;3.50;;;21.60;99.90;;;;;;5030036;28;20444;-75
2023/09/03 09:22:03;;;;;;;5.90;3.40;;;21.70;99.90;;;;;;5024498;28;20417;-74
2023/09/03 09:24:50;;;;;;;6.60;3.30;;;21.80;99.90;;;;;;5024322;28;20451;-74
2023/09/03 09:27:38;;;;;;;7.33;3.20;;;21.80;99.90;;;;;;5024772;28;20447;-74
2023/09/03 09:30:25;;;;;;;7.63;3.13;;;21.90;99.90;;;;;;5025692;28;20452;-75
2023/09/03 09:33:12;;;;;;;4.13;2.97;;;22.00;99.90;;;;;;5026193;28;20470;-76
2023/09/03 09:36:11;;;;;;;4.80;3.10;;;22.00;99.90;;;;;;5020711;28;20471;-75
2023/09/03 09:39:06;;;;;;;5.53;3.77;;;22.20;99.90;;;;;;5021252;28;21206;-74
2023/09/03 09:42:07;;;;;;;5.83;3.17;;;22.30;99.90;;;;;;5025470;28;20465;-76
2023/09/03 09:45:00;;;;;;;4.27;3.37;;;22.30;99.90;;;;;;5021980;28;20560;-74
2023/09/03 09:47:45;;;;;;;5.37;3.20;;;22.40;99.90;;;;;;5027049;28;20452;-74
2023/09/03 09:50:37;;;;;;;5.93;3.50;;;22.40;99.90;;;;;;5026520;28;20452;-74
2023/09/03 09:53:24;;;;;;;4.43;3.47;;;22.50;99.90;;;;;;5024362;28;20439;-75
2023/09/03 09:56:12;;;;;;;5.23;4.20;;;22.60;99.90;;;;;;5028500;28;20970;-74
2023/09/03 09:58:59;;;;;;;5.60;4.00;;;22.50;99.90;;;;;;5024139;28;20442;-74
2023/09/03 10:01:46;;;;;;;3.40;3.07;;;22.60;99.90;;;;;;5027910;28;20453;-78
2023/09/03 10:04:31;;;;;;;4.70;3.60;;;22.60;99.90;;;;;;5023433;28;20539;-74
2023/09/03 10:07:18;;;;;;;6.43;3.83;;;22.60;99.90;;;;;;5025218;28;20515;-74
2023/09/03 10:10:06;;;;;;;6.53;3.73;;;22.70;99.90;;;;;;5023659;28;20510;-78
2023/09/03 10:12:51;;;;;;;4.90;3.30;;;22.70;99.90;;;;;;5022385;28;20997;-75
2023/09/03 10:15:40;;;;;;;4.23;3.00;;;22.70;99.90;;;;;;5018992;28;20464;-75
2023/09/03 10:18:28;;;;;;;8.53;3.37;;;22.90;99.90;;;;;;5028367;28;20911;-74
2023/09/03 10:21:17;;;;;;;5.40;3.70;;;23.00;99.90;;;;;;5022850;28;20446;-74
2023/09/03 10:24:08;;;;;;;6.00;3.93;;;23.00;99.90;;;;;;5026212;28;20495;-74
2023/09/03 10:26:58;;;;;;;4.03;2.80;;;23.10;99.90;;;;;;5024478;28;20456;-74
2023/09/03 10:29:47;;;;;;;3.63;3.10;;;23.20;99.90;;;;;;5025308;28;20523;-75
2023/09/03 10:32:33;;;;;;;5.13;3.60;;;23.20;99.90;;;;;;5024664;28;20573;-75
2023/09/03 10:35:19;;;;;;;6.00;3.30;;;23.30;99.90;;;;;;5018306;28;20568;-77
2023/09/03 10:38:06;;;;;;;4.27;2.83;;;23.40;99.90;;;;;;5025071;28;20571;-73
2023/09/03 10:41:20;;;;;;;3.73;2.50;;;23.40;99.90;;;;;;5026844;28;20508;-75
2023/09/03 10:44:16;;;;;;;9.00;2.30;;;23.50;99.90;;;;;;5027271;28;20932;-74
2023/09/03 10:47:02;;;;;;;3.80;2.70;;;23.70;99.90;;;;;;5022774;28;20667;-74
2023/09/03 10:49:49;;;;;;;3.90;2.80;;;23.70;99.90;;;;;;5023166;28;20459;-78
2023/09/03 10:52:41;;;;;;;3.60;2.90;;;23.80;99.90;;;;;;5019999;28;20444;-75
2023/09/03 10:55:28;;;;;;;3.10;2.70;;;23.80;99.90;;;;;;5017759;28;20476;-77
2023/09/03 10:58:31;;;;;;;5.50;3.10;;;23.90;99.90;;;;;;5024611;28;20443;-75
2023/09/03 11:01:18;;;;;;;6.23;3.40;;;24.00;99.90;;;;;;5027200;28;20908;-74
2023/09/03 11:04:05;;;;;;;5.63;3.10;;;24.10;99.90;;;;;;5027948;28;20446;-75
2023/09/03 11:07:23;;;;;;;4.23;2.93;;;24.20;99.90;;;;;;5022110;28;20476;-74
2023/09/03 11:10:42;;;;;;;3.90;3.50;;;24.30;99.90;;;;;;5024233;28;20463;-77
2023/09/03 11:13:30;;;;;;;4.67;3.50;;;24.40;99.90;;;;;;5023307;28;20439;-75
2023/09/03 11:16:16;;;;;;;3.60;2.87;;;24.50;99.90;;;;;;5072196;22;20593;-70
2023/09/03 11:19:03;;;;;;;4.00;2.57;;;24.50;99.90;;;;;;5080072;28;20950;-70
2023/09/03 11:21:48;;;;;;;3.40;2.67;;;24.50;99.90;;;;;;5077974;28;20447;-70
2023/09/03 11:24:46;;;;;;;5.00;2.50;;;24.50;99.90;;;;;;5081437;28;20802;-70
2023/09/03 11:27:31;;;;;;;4.60;3.33;;;24.60;99.90;;;;;;5061806;28;20444;-70
2023/09/03 11:30:19;;;;;;;5.87;3.60;;;24.50;99.90;;;;;;5061900;28;20820;-70
2023/09/03 11:33:08;;;;;;;3.80;3.03;;;24.60;99.90;;;;;;5062523;28;20448;-70
2023/09/03 11:35:54;;;;;;;4.90;3.77;;;24.70;99.90;;;;;;5064979;28;20992;-70
2023/09/03 11:38:40;;;;;;;6.00;3.40;;;24.70;99.90;;;;;;5064070;28;20497;-70
2023/09/03 11:41:26;;;;;;;3.87;3.43;;;24.70;99.90;;;;;;5063916;28;20942;-70
2023/09/03 11:44:15;;;;;;;4.03;3.20;;;24.70;99.90;;;;;;5061490;28;20457;-70
2023/09/03 11:47:03;;;;;;;4.73;3.70;;;24.70;99.40;;;;;;5061748;28;20776;-70
2023/09/03 11:49:49;;;;;;;4.87;3.60;;;24.80;99.90;;;;;;5067092;28;20460;-70
2023/09/03 11:52:35;;;;;;;4.20;3.23;;;24.80;95.20;;;;;;5065578;28;20530;-70
2023/09/03 11:55:22;;;;;;;4.10;3.53;;;24.90;95.90;;;;;;5064736;28;20565;-70
2023/09/03 11:58:11;;;;;;;6.13;3.40;;;24.90;93.90;;;;;;5066535;28;20529;-70
2023/09/03 12:00:57;;;;;;;3.83;3.20;;;24.90;96.70;;;;;;5063159;28;20786;-70
2023/09/03 12:03:45;;;;;;;5.03;3.20;;;25.00;90.00;;;;;;5064978;28;20976;-70
2023/09/03 12:06:36;;;;;;;3.97;3.03;;;25.00;90.30;;;;;;5065536;28;20514;-71
2023/09/03 12:09:23;;;;;;;5.37;3.20;;;25.00;88.00;;;;;;5064899;28;20910;-70
2023/09/03 12:12:10;;;;;;;3.67;2.80;;;25.00;81.20;;;;;;5064858;28;21402;-70
2023/09/03 12:14:55;;;;;;;3.80;3.37;;;25.00;78.70;;;;;;5062520;28;20444;-70
2023/09/03 12:17:41;;;;;;;4.83;3.37;;;25.00;87.40;;;;;;5063817;28;20439;-70
2023/09/03 12:20:38;;;;;;;4.30;3.13;;;25.10;81.20;;;;;;5058934;28;20831;-70
2023/09/03 12:23:24;;;;;;;3.33;2.70;;;25.10;81.30;;;;;;5064763;28;20441;-70
2023/09/03 12:26:15;;;;;;;4.30;3.23;;;25.20;76.20;;;;;;5061918;28;20466;-70
2023/09/03 12:29:03;;;;;;;4.27;3.40;;;25.30;75.60;;;;;;5066656;28;20865;-70
2023/09/03 12:31:49;;;;;;;4.63;3.50;;;25.30;70.00;;;;;;5063579;28;21476;-70
2023/09/03 12:34:35;;;;;;;3.90;3.17;;;25.40;72.50;;;;;;5061286;28;20475;-70
2023/09/03 12:37:22;;;;;;;4.63;3.00;;;25.50;62.40;;;;;;5064729;28;20432;-70
2023/09/03 12:40:08;;;;;;;3.57;2.87;;;25.40;62.60;;;;;;5061335;28;21081;-69
2023/09/03 12:42:54;;;;;;;5.00;3.60;;;25.50;60.00;;;;;;5066137;28;20915;-70
2023/09/03 12:45:39;;;;;;;6.00;3.40;;;25.50;60.00;;;;;;5066564;28;20474;-70
2023/09/03 12:48:25;;;;;;;4.90;3.73;;;25.60;56.70;;;;;;5064595;28;20455;-70
2023/09/03 12:51:11;;;;;;;4.60;3.60;;;25.70;63.70;;;;;;5063304;28;20465;-70
2023/09/03 12:53:58;;;;;;;5.93;3.83;;;25.80;56.10;;;;;;5062125;28;20439;-69
2023/09/03 12:56:44;;;;;;;4.60;3.53;;;25.90;56.40;;;;;;5065149;28;20465;-70
2023/09/03 12:59:29;;;;;;;4.83;3.57;;;25.90;53.90;;;;;;5066386;28;20440;-70
2023/09/03 13:02:17;;;;;;;4.03;3.17;;;26.00;55.40;;;;;;5060573;28;20460;-70
2023/09/03 13:05:03;;;;;;;4.90;3.60;;;26.10;56.10;;;;;;5067767;28;20512;-70
2023/09/03 13:07:49;;;;;;;5.17;3.80;;;26.10;52.00;;;;;;5066695;28;20525;-70
2023/09/03 13:10:36;;;;;;;5.33;3.70;;;26.00;55.30;;;;;;5061264;28;20809;-70
2023/09/03 13:13:21;;;;;;;4.33;3.77;;;26.00;56.90;;;;;;5059635;28;20489;-71
2023/09/03 13:16:07;;;;;;;6.50;3.30;;;26.10;52.60;;;;;;5062268;28;20479;-71
2023/09/03 13:18:53;;;;;;;6.83;4.10;;;26.20;45.90;;;;;;5063792;28;20441;-71
2023/09/03 13:21:38;;;;;;;4.67;3.40;;;26.40;44.80;;;;;;5069952;28;20444;-71
2023/09/03 13:24:24;;;;;;;4.80;3.20;;;26.60;44.90;;;;;;5061448;28;20499;-72
2023/09/03 13:27:11;;;;;;;4.00;3.60;;;26.80;43.30;;;;;;5061710;28;20572;-72
2023/09/03 13:29:57;;;;;;;5.20;2.93;;;27.00;38.40;;;;;;5070443;28;20448;-72
2023/09/03 13:32:43;;;;;;;10.53;3.47;;;27.10;36.40;;;;;;5072115;28;20495;-72
2023/09/03 13:35:29;;;;;;;8.23;3.50;;;27.10;35.80;;;;;;5062683;28;20459;-72
2023/09/03 13:38:15;;;;;;;3.50;2.87;;;27.10;39.30;;;;;;5072304;28;20510;-72
2023/09/03 13:41:04;;;;;;;4.10;3.20;;;27.20;32.90;;;;;;5075169;28;20445;-72
2023/09/03 13:43:51;;;;;;;4.60;3.63;;;27.20;32.90;;;;;;5070720;28;20446;-72
2023/09/03 13:46:36;;;;;;;4.47;3.27;;;27.30;32.90;;;;;;5066059;28;20480;-72
2023/09/03 13:49:22;;;;;;;6.17;3.90;;;27.30;31.40;;;;;;5070838;28;20453;-72
2023/09/03 13:52:07;;;;;;;5.80;3.37;;;27.30;32.50;;;;;;5070965;28;20850;-72
2023/09/03 13:54:53;;;;;;;4.30;3.47;;;27.20;32.90;;;;;;5076110;28;20873;-72
2023/09/03 13:57:39;;;;;;;4.30;3.00;;;27.20;34.70;;;;;;5072307;28;20439;-71
2023/09/03 14:00:26;;;;;;;5.70;3.20;;;27.10;30.50;;;;;;5061301;28;20523;-72
2023/09/03 14:03:11;;;;;;;4.50;3.67;;;27.00;31.20;;;;;;5066143;28;20488;-72
2023/09/03 14:06:05;;;;;;;5.67;4.10;;;26.70;31.90;;;;;;5065713;28;20476;-71
2023/09/03 14:08:50;;;;;;;4.97;3.67;;;26.60;33.70;;;;;;5066161;28;20444;-72
2023/09/03 14:11:37;;;;;;;5.90;4.37;;;26.50;31.80;;;;;;5069297;28;20816;-72
2023/09/03 14:14:23;;;;;;;4.57;3.43;;;26.50;33.30;;;;;;5072790;28;20447;-72
2023/09/03 14:17:10;;;;;;;6.47;3.23;;;26.50;31.80;;;;;;5067723;28;20879;-71
2023/09/03 14:19:56;;;;;;;5.10;3.53;;;26.50;35.10;;;;;;5066890;28;21468;-72
2023/09/03 14:22:43;;;;;;;3.73;3.10;;;26.50;33.30;;;;;;5066971;28;20524;-72
2023/09/03 14:25:29;;;;;;;4.30;3.13;;;26.60;31.50;;;;;;5064905;28;21021;-71
2023/09/03 14:28:15;;;;;;;5.10;3.90;;;26.70;32.80;;;;;;5059591;28;20502;-72